X  Schließen METAR Luftfahrt Wetterdaten     EDTY Adolf Würth Airport
Temperatur
4°C Temperatur
4°C Taupunkt
100% Feuchtigkeit



Wind
5 KM/S
3 MPS
1 M/S
3 KTS



100°
Ost
Aktuelle Wetterlage

Meistens bewölkt Meistens bewölkt
Luftdruck 1012.92 (hPa) - 29.91 (inHg)
Sichtweite 2.2 (Meile) - 3.6 (Km)
Flughafen
Flughafen Code EDTY

Position : Adolf Würth Airport
Entfernung: 59 (Km)

Metar:
EDTY 290020Z AUTO 10003KT 3600 // BKN008/// BKN025/// OVC031/// 04/04 Q1013

Zeit: 29-11-2022 01:20 CET